createdAt,value
2022-11-13T00:01:26.576Z,102383.00
2022-11-13T00:03:53.838Z,102387.00
2022-11-13T00:06:21.248Z,102368.00
2022-11-13T00:08:49.002Z,102377.00
2022-11-13T00:11:20.582Z,102372.00
2022-11-13T00:13:48.916Z,102371.00
2022-11-13T00:16:21.770Z,102365.00
2022-11-13T00:18:48.978Z,102367.00
2022-11-13T00:21:18.892Z,102369.00
2022-11-13T00:23:46.723Z,102373.00
2022-11-13T00:26:18.604Z,102367.00
2022-11-13T00:28:57.939Z,102372.00
2022-11-13T00:31:25.826Z,102363.00
2022-11-13T00:36:40.970Z,102355.00
2022-11-13T00:39:47.377Z,102364.00
2022-11-13T00:42:14.630Z,102361.00
2022-11-13T00:44:42.413Z,102355.00
2022-11-13T00:47:09.774Z,102334.00
2022-11-13T00:49:36.970Z,102342.00
2022-11-13T00:52:06.064Z,102350.00
2022-11-13T00:54:33.295Z,102340.00
2022-11-13T00:57:00.501Z,102335.00
2022-11-13T00:59:27.615Z,102336.00
2022-11-13T01:01:54.974Z,102330.00
2022-11-13T01:04:25.318Z,102328.00
2022-11-13T01:06:52.618Z,102336.00
2022-11-13T01:09:20.126Z,102334.00
2022-11-13T01:11:47.488Z,102314.00
2022-11-13T01:14:15.044Z,102324.00
2022-11-13T01:16:42.246Z,102310.00
2022-11-13T01:19:09.523Z,102305.00
2022-11-13T01:21:36.974Z,102310.00
2022-11-13T01:24:04.514Z,102311.00
2022-11-13T01:26:32.306Z,102300.00
2022-11-13T01:29:01.161Z,102289.00
2022-11-13T01:31:31.121Z,102300.00
2022-11-13T01:34:14.176Z,102290.00
2022-11-13T01:36:54.103Z,102288.00
2022-11-13T01:39:25.972Z,102290.00
2022-11-13T01:41:53.514Z,102287.00
2022-11-13T01:44:21.017Z,102285.00
2022-11-13T01:46:55.780Z,102278.00
2022-11-13T01:49:33.460Z,102274.00
2022-11-13T01:52:07.325Z,102281.00
2022-11-13T01:54:43.736Z,102281.00
2022-11-13T01:57:12.649Z,102274.00
2022-11-13T01:59:45.658Z,102271.00
2022-11-13T02:02:12.806Z,102278.00
2022-11-13T02:04:40.282Z,102277.00
2022-11-13T02:07:11.864Z,102276.00
2022-11-13T02:09:46.931Z,102273.00
2022-11-13T02:12:20.884Z,102261.00
2022-11-13T02:14:55.266Z,102275.00
2022-11-13T02:17:31.463Z,102266.00
2022-11-13T02:20:08.899Z,102259.00
2022-11-13T02:23:11.948Z,102250.00
2022-11-13T02:25:43.158Z,102261.00
2022-11-13T02:28:10.520Z,102261.00
2022-11-13T02:30:38.183Z,102265.00
2022-11-13T02:33:31.455Z,102266.00
2022-11-13T02:35:59.988Z,102268.00
2022-11-13T02:38:27.975Z,102267.00
2022-11-13T02:40:55.696Z,102273.00
2022-11-13T02:43:23.570Z,102258.00
2022-11-13T02:45:51.255Z,102270.00
2022-11-13T02:48:18.978Z,102272.00
2022-11-13T02:50:46.611Z,102267.00
2022-11-13T02:53:30.389Z,102268.00
2022-11-13T02:56:39.359Z,102259.00
2022-11-13T02:59:31.072Z,102264.00
2022-11-13T03:02:24.854Z,102247.00
2022-11-13T03:05:12.534Z,102252.00
2022-11-13T03:07:55.309Z,102253.00
2022-11-13T03:10:36.540Z,102259.00
2022-11-13T03:13:28.781Z,102260.00
2022-11-13T03:16:21.241Z,102250.00
2022-11-13T03:19:18.693Z,102247.00
2022-11-13T03:22:07.405Z,102241.00
2022-11-13T03:24:56.904Z,102241.00
2022-11-13T03:27:40.258Z,102238.00
2022-11-13T03:30:29.461Z,102246.00
2022-11-13T03:33:11.839Z,102244.00
2022-11-13T03:35:51.163Z,102235.00
2022-11-13T03:38:31.152Z,102239.00
2022-11-13T03:41:20.522Z,102244.00
2022-11-13T03:44:04.154Z,102237.00
2022-11-13T03:46:46.968Z,102238.00
2022-11-13T03:50:45.603Z,102236.00
2022-11-13T03:53:28.867Z,102238.00
2022-11-13T03:56:12.578Z,102233.00
2022-11-13T03:59:03.725Z,102230.00
2022-11-13T04:01:47.112Z,102229.00
2022-11-13T04:04:15.637Z,102228.00
2022-11-13T04:06:43.042Z,102233.00
2022-11-13T04:09:10.636Z,102234.00
2022-11-13T04:11:37.921Z,102220.00
2022-11-13T04:14:06.442Z,102219.00
2022-11-13T04:16:33.489Z,102224.00
2022-11-13T04:19:00.697Z,102217.00
2022-11-13T04:21:28.070Z,102226.00
2022-11-13T04:23:55.277Z,102227.00
2022-11-13T04:26:22.669Z,102226.00
2022-11-13T04:28:49.904Z,102225.00
2022-11-13T04:31:17.561Z,102208.00
2022-11-13T04:33:44.799Z,102195.00
2022-11-13T04:36:12.181Z,102206.00
2022-11-13T04:38:39.296Z,102199.00
2022-11-13T04:41:25.059Z,102199.00
2022-11-13T04:43:52.122Z,102192.00
2022-11-13T04:46:19.320Z,102192.00
2022-11-13T04:48:46.758Z,102186.00
2022-11-13T04:51:14.484Z,102194.00
2022-11-13T04:53:42.047Z,102191.00
2022-11-13T04:56:09.177Z,102197.00
2022-11-13T04:58:36.618Z,102193.00
2022-11-13T05:01:07.026Z,102178.00
2022-11-13T05:03:34.484Z,102175.00
2022-11-13T05:06:11.026Z,102195.00
2022-11-13T05:08:38.337Z,102179.00
2022-11-13T05:11:06.080Z,102174.00
2022-11-13T05:13:35.975Z,102162.00
2022-11-13T05:16:12.891Z,102175.00
2022-11-13T05:18:40.788Z,102166.00
2022-11-13T05:21:10.108Z,102167.00
2022-11-13T05:23:37.468Z,102167.00
2022-11-13T05:26:08.836Z,102169.00
2022-11-13T05:28:36.942Z,102165.00
2022-11-13T05:31:13.779Z,102154.00
2022-11-13T05:33:42.601Z,102152.00
2022-11-13T05:36:14.143Z,102154.00
2022-11-13T05:38:42.569Z,102144.00
2022-11-13T05:41:21.858Z,102145.00
2022-11-13T05:43:51.755Z,102141.00
2022-11-13T05:46:26.297Z,102137.00
2022-11-13T05:48:57.925Z,102134.00
2022-11-13T05:51:34.461Z,102129.00
2022-11-13T05:54:02.592Z,102126.00
2022-11-13T05:56:34.161Z,102121.00
2022-11-13T05:59:03.180Z,102125.00
2022-11-13T06:01:37.110Z,102122.00
2022-11-13T06:04:06.553Z,102127.00
2022-11-13T06:06:34.524Z,102115.00
2022-11-13T06:09:05.382Z,102107.00
2022-11-13T06:11:33.355Z,102108.00
2022-11-13T06:14:01.485Z,102105.00
2022-11-13T06:16:34.571Z,102102.00
2022-11-13T06:19:06.850Z,102099.00
2022-11-13T06:21:37.547Z,102106.00
2022-11-13T06:24:05.490Z,102099.00
2022-11-13T06:26:36.393Z,102094.00
2022-11-13T06:29:07.928Z,102089.00
2022-11-13T06:31:38.049Z,102090.00
2022-11-13T06:34:06.713Z,102101.00
2022-11-13T06:36:37.681Z,102092.00
2022-11-13T06:39:09.887Z,102097.00
2022-11-13T06:41:39.397Z,102088.00
2022-11-13T06:44:06.901Z,102092.00
2022-11-13T06:46:34.615Z,102080.00
2022-11-13T06:49:02.540Z,102087.00
2022-11-13T06:51:31.625Z,102080.00
2022-11-13T06:53:59.648Z,102090.00
2022-11-13T06:56:27.623Z,102089.00
2022-11-13T06:58:57.326Z,102084.00
2022-11-13T07:01:26.912Z,102076.00
2022-11-13T07:03:54.751Z,102077.00
2022-11-13T07:06:24.698Z,102069.00
2022-11-13T07:08:52.206Z,102055.00
2022-11-13T07:11:24.392Z,102070.00
2022-11-13T07:13:51.722Z,102071.00
2022-11-13T07:16:19.759Z,102068.00
2022-11-13T07:18:54.960Z,102074.00
2022-11-13T07:21:25.793Z,102062.00
2022-11-13T07:23:52.958Z,102068.00
2022-11-13T07:26:20.497Z,102077.00
2022-11-13T07:28:49.133Z,102063.00
2022-11-13T07:31:18.253Z,102062.00
2022-11-13T07:33:48.182Z,102076.00
2022-11-13T07:36:16.740Z,102075.00
2022-11-13T07:38:43.965Z,102070.00
2022-11-13T07:41:11.361Z,102066.00
2022-11-13T07:43:38.878Z,102077.00
2022-11-13T07:46:06.278Z,102070.00
2022-11-13T07:48:33.753Z,102060.00
2022-11-13T07:51:02.752Z,102063.00
2022-11-13T07:53:30.874Z,102069.00
2022-11-13T07:56:02.120Z,102055.00
2022-11-13T07:58:30.307Z,102042.00
2022-11-13T08:01:04.397Z,102048.00
2022-11-13T08:03:32.576Z,102048.00
2022-11-13T08:06:06.084Z,102060.00
2022-11-13T08:08:33.774Z,102051.00
2022-11-13T08:11:09.595Z,102053.00
2022-11-13T08:13:38.322Z,102052.00
2022-11-13T08:16:06.277Z,102054.00
2022-11-13T08:18:33.977Z,102046.00
2022-11-13T08:21:03.974Z,102056.00
2022-11-13T08:23:32.448Z,102053.00
2022-11-13T08:26:06.127Z,102054.00
2022-11-13T08:28:34.018Z,102044.00
2022-11-13T08:31:01.953Z,102045.00
2022-11-13T08:33:30.229Z,102049.00
2022-11-13T08:35:59.957Z,102041.00
2022-11-13T08:38:27.990Z,102041.00
2022-11-13T08:41:04.389Z,102028.00
2022-11-13T08:43:34.501Z,102030.00
2022-11-13T08:46:01.620Z,102033.00
2022-11-13T08:48:29.137Z,102031.00
2022-11-13T08:50:58.108Z,102027.00
2022-11-13T08:53:26.588Z,102025.00
2022-11-13T08:55:53.639Z,102023.00
2022-11-13T08:58:20.925Z,102018.00
2022-11-13T09:00:48.600Z,102008.00
2022-11-13T09:03:15.846Z,101997.00
2022-11-13T09:05:43.119Z,101992.00
2022-11-13T09:08:11.070Z,101995.00
2022-11-13T09:10:38.439Z,101987.00
2022-11-13T09:13:09.023Z,101989.00
2022-11-13T09:16:34.522Z,101986.00
2022-11-13T09:19:39.219Z,101986.00
2022-11-13T09:22:06.910Z,101987.00
2022-11-13T09:24:34.363Z,101985.00
2022-11-13T09:27:01.899Z,101988.00
2022-11-13T09:29:29.282Z,101978.00
2022-11-13T09:31:57.093Z,101975.00
2022-11-13T09:34:28.009Z,101974.00
2022-11-13T09:36:55.456Z,101968.00
2022-11-13T09:39:22.733Z,101972.00
2022-11-13T09:42:15.851Z,101979.00
2022-11-13T09:44:52.098Z,101979.00
2022-11-13T09:47:37.893Z,101981.00
2022-11-13T09:50:27.623Z,101981.00
2022-11-13T09:52:55.940Z,101972.00
2022-11-13T09:55:34.016Z,101974.00
2022-11-13T09:58:45.079Z,101975.00
2022-11-13T10:01:28.791Z,101971.00
2022-11-13T10:04:11.970Z,101971.00
2022-11-13T10:07:03.180Z,101973.00
2022-11-13T10:10:27.220Z,101968.00
2022-11-13T10:13:52.210Z,101966.00
2022-11-13T10:17:07.112Z,101962.00
2022-11-13T10:19:45.150Z,101960.00
2022-11-13T10:22:33.858Z,101951.00
2022-11-13T10:25:29.615Z,101953.00
2022-11-13T10:28:21.566Z,101940.00
2022-11-13T10:30:50.843Z,101938.00
2022-11-13T10:33:22.440Z,101944.00
2022-11-13T10:36:30.120Z,101938.00
2022-11-13T10:39:08.882Z,101941.00
2022-11-13T10:41:49.054Z,101937.00
2022-11-13T10:44:32.557Z,101928.00
2022-11-13T10:47:36.122Z,101934.00
2022-11-13T10:50:28.532Z,101929.00
2022-11-13T10:52:57.325Z,101926.00
2022-11-13T10:55:38.928Z,101932.00
2022-11-13T10:58:19.832Z,101921.00
2022-11-13T11:00:50.011Z,101923.00
2022-11-13T11:03:22.018Z,101919.00
2022-11-13T11:06:01.772Z,101918.00
2022-11-13T11:08:35.722Z,101919.00
2022-11-13T11:11:36.948Z,101914.00
2022-11-13T11:14:42.341Z,101914.00
2022-11-13T11:17:15.783Z,101909.00
2022-11-13T11:19:52.284Z,101908.00
2022-11-13T11:22:27.990Z,101904.00
2022-11-13T11:25:05.276Z,101898.00
2022-11-13T11:27:45.257Z,101905.00
2022-11-13T11:30:28.026Z,101898.00
2022-11-13T11:33:26.344Z,101898.00
2022-11-13T11:36:09.137Z,101892.00
2022-11-13T11:39:02.837Z,101888.00
2022-11-13T11:42:24.320Z,101887.00
2022-11-13T11:45:20.464Z,101895.00
2022-11-13T11:47:48.435Z,101893.00
2022-11-13T11:50:38.547Z,101895.00
2022-11-13T11:53:40.537Z,101881.00
2022-11-13T11:56:37.473Z,101877.00
2022-11-13T11:59:33.961Z,101881.00
2022-11-13T12:02:06.931Z,101874.00
2022-11-13T12:05:11.557Z,101870.00
2022-11-13T12:07:57.019Z,101872.00
2022-11-13T12:10:43.301Z,101871.00
2022-11-13T12:13:13.370Z,101860.00
2022-11-13T12:15:56.558Z,101854.00
2022-11-13T12:18:57.796Z,101852.00
2022-11-13T12:21:31.591Z,101848.00
2022-11-13T12:24:33.585Z,101842.00
2022-11-13T12:27:47.383Z,101845.00
2022-11-13T12:30:41.717Z,101825.00
2022-11-13T12:33:34.011Z,101830.00
2022-11-13T12:36:03.658Z,101812.00
2022-11-13T12:38:51.859Z,101813.00
2022-11-13T12:41:36.623Z,101804.00
2022-11-13T12:44:25.399Z,101793.00
2022-11-13T12:46:55.943Z,101785.00
2022-11-13T12:49:23.028Z,101784.00
2022-11-13T12:52:16.422Z,101779.00
2022-11-13T12:54:44.165Z,101774.00
2022-11-13T12:57:14.496Z,101765.00
2022-11-13T12:59:54.639Z,101763.00
2022-11-13T13:02:46.443Z,101757.00
2022-11-13T13:05:25.401Z,101746.00
2022-11-13T13:08:44.610Z,101741.00
2022-11-13T13:11:41.942Z,101736.00
2022-11-13T13:14:26.009Z,101738.00
2022-11-13T13:17:04.285Z,101735.00
2022-11-13T13:19:33.638Z,101736.00
2022-11-13T13:22:00.757Z,101724.00
2022-11-13T13:24:33.092Z,101730.00
2022-11-13T13:27:01.558Z,101724.00
2022-11-13T13:29:30.500Z,101723.00
2022-11-13T13:32:25.323Z,101719.00
2022-11-13T13:35:17.256Z,101717.00
2022-11-13T13:38:17.475Z,101706.00
2022-11-13T13:41:02.636Z,101703.00
2022-11-13T13:43:48.752Z,101707.00
2022-11-13T13:46:31.966Z,101707.00
2022-11-13T13:49:09.700Z,101694.00
2022-11-13T13:51:48.358Z,101696.00
2022-11-13T13:54:27.997Z,101696.00
2022-11-13T13:56:58.254Z,101699.00
2022-11-13T13:59:37.540Z,101692.00
2022-11-13T14:02:25.030Z,101688.00
2022-11-13T14:04:54.723Z,101683.00
2022-11-13T14:07:24.023Z,101684.00
2022-11-13T14:10:05.523Z,101685.00
2022-11-13T14:12:32.882Z,101677.00
2022-11-13T14:15:00.158Z,101675.00
2022-11-13T14:17:29.236Z,101677.00
2022-11-13T14:20:01.223Z,101687.00
2022-11-13T14:22:29.183Z,101680.00
2022-11-13T14:25:01.616Z,101686.00
2022-11-13T14:27:31.162Z,101680.00
2022-11-13T14:30:03.431Z,101690.00
2022-11-13T14:32:45.661Z,101678.00
2022-11-13T14:35:26.569Z,101687.00
2022-11-13T14:37:56.109Z,101686.00
2022-11-13T14:40:31.336Z,101689.00
2022-11-13T14:43:07.785Z,101693.00
2022-11-13T14:45:35.206Z,101702.00
2022-11-13T14:48:21.299Z,101701.00
2022-11-13T14:50:55.465Z,101702.00
2022-11-13T14:54:07.873Z,101700.00
2022-11-13T14:56:42.558Z,101700.00
2022-11-13T14:59:19.999Z,101696.00
2022-11-13T15:01:58.256Z,101696.00
2022-11-13T15:04:26.255Z,101691.00
2022-11-13T15:06:56.281Z,101689.00
2022-11-13T15:09:25.852Z,101697.00
2022-11-13T15:11:53.122Z,101687.00
2022-11-13T15:14:22.341Z,101690.00
2022-11-13T15:16:53.024Z,101687.00
2022-11-13T15:19:35.313Z,101689.00
2022-11-13T15:22:25.807Z,101682.00
2022-11-13T15:24:50.200Z,101689.00
2022-11-13T15:27:18.772Z,101691.00
2022-11-13T15:29:46.018Z,101682.00
2022-11-13T15:32:16.030Z,101684.00
2022-11-13T15:34:43.440Z,101670.00
2022-11-13T15:37:16.567Z,101662.00
2022-11-13T15:39:43.706Z,101675.00
2022-11-13T15:42:17.603Z,101662.00
2022-11-13T15:44:44.712Z,101656.00
2022-11-13T15:47:35.776Z,101653.00
2022-11-13T15:50:14.859Z,101653.00
2022-11-13T15:52:48.178Z,101645.00
2022-11-13T15:55:31.637Z,101653.00
2022-11-13T15:58:03.608Z,101645.00
2022-11-13T16:00:30.938Z,101647.00
2022-11-13T16:02:58.540Z,101640.00
2022-11-13T16:05:29.567Z,101644.00
2022-11-13T16:07:57.771Z,101636.00
2022-11-13T16:10:25.987Z,101629.00
2022-11-13T16:12:53.795Z,101620.00
2022-11-13T16:15:21.861Z,101626.00
2022-11-13T16:17:56.480Z,101626.00
2022-11-13T16:20:24.308Z,101627.00
2022-11-13T16:22:52.507Z,101633.00
2022-11-13T16:25:22.577Z,101621.00
2022-11-13T16:27:51.029Z,101629.00
2022-11-13T16:30:21.540Z,101616.00
2022-11-13T16:32:49.265Z,101620.00
2022-11-13T16:35:19.009Z,101615.00
2022-11-13T16:37:46.706Z,101623.00
2022-11-13T16:40:24.169Z,101619.00
2022-11-13T16:42:51.950Z,101633.00
2022-11-13T16:45:20.429Z,101627.00
2022-11-13T16:47:48.476Z,101628.00
2022-11-13T16:50:22.184Z,101616.00
2022-11-13T16:52:51.381Z,101604.00
2022-11-13T16:55:18.673Z,101614.00
2022-11-13T16:57:45.852Z,101619.00
2022-11-13T17:00:16.839Z,101608.00
2022-11-13T17:02:44.787Z,101613.00
2022-11-13T17:05:16.738Z,101608.00
2022-11-13T17:07:44.054Z,101604.00
2022-11-13T17:10:30.965Z,101599.00
2022-11-13T17:12:59.319Z,101608.00
2022-11-13T17:15:26.537Z,101598.00
2022-11-13T17:17:58.619Z,101599.00
2022-11-13T17:20:25.982Z,101605.00
2022-11-13T17:22:53.107Z,101599.00
2022-11-13T17:25:20.814Z,101590.00
2022-11-13T17:27:48.020Z,101587.00
2022-11-13T17:30:15.369Z,101597.00
2022-11-13T17:32:42.573Z,101591.00
2022-11-13T17:35:13.981Z,101588.00
2022-11-13T17:37:41.350Z,101584.00
2022-11-13T17:40:11.184Z,101580.00
2022-11-13T17:42:38.352Z,101585.00
2022-11-13T17:45:06.039Z,101586.00
2022-11-13T17:47:34.538Z,101581.00
2022-11-13T17:50:07.061Z,101581.00
2022-11-13T17:52:34.667Z,101579.00
2022-11-13T17:55:06.199Z,101591.00
2022-11-13T17:57:33.891Z,101585.00
2022-11-13T18:00:01.053Z,101578.00
2022-11-13T18:02:28.272Z,101576.00
2022-11-13T18:04:58.468Z,101584.00
2022-11-13T18:07:25.592Z,101564.00
2022-11-13T18:09:52.846Z,101560.00
2022-11-13T18:12:19.962Z,101565.00
2022-11-13T18:14:52.600Z,101560.00
2022-11-13T18:17:24.419Z,101557.00
2022-11-13T18:19:57.138Z,101558.00
2022-11-13T18:22:27.464Z,101553.00
2022-11-13T18:24:55.294Z,101557.00
2022-11-13T18:27:22.580Z,101556.00
2022-11-13T18:29:52.096Z,101560.00
2022-11-13T18:32:19.286Z,101555.00
2022-11-13T18:34:46.464Z,101542.00
2022-11-13T18:37:13.653Z,101544.00
2022-11-13T18:39:40.904Z,101533.00
2022-11-13T18:42:07.967Z,101524.00
2022-11-13T18:44:36.776Z,101539.00
2022-11-13T18:47:04.026Z,101542.00
2022-11-13T18:49:31.327Z,101540.00
2022-11-13T18:51:58.517Z,101535.00
2022-11-13T18:54:25.738Z,101530.00
2022-11-13T18:56:53.672Z,101526.00
2022-11-13T18:59:20.890Z,101526.00
2022-11-13T19:01:48.196Z,101526.00
2022-11-13T19:04:22.697Z,101516.00
2022-11-13T19:06:51.392Z,101515.00
2022-11-13T19:09:18.774Z,101509.00
2022-11-13T19:11:46.404Z,101511.00
2022-11-13T19:14:16.766Z,101512.00
2022-11-13T19:16:44.251Z,101503.00
2022-11-13T19:19:19.010Z,101497.00
2022-11-13T19:21:46.945Z,101505.00
2022-11-13T19:24:15.116Z,101506.00
2022-11-13T19:26:43.990Z,101509.00
2022-11-13T19:29:11.954Z,101516.00
2022-11-13T19:31:39.299Z,101510.00
2022-11-13T19:34:10.389Z,101504.00
2022-11-13T19:36:37.968Z,101501.00
2022-11-13T19:39:05.434Z,101505.00
2022-11-13T19:41:33.041Z,101498.00
2022-11-13T19:44:00.572Z,101503.00
2022-11-13T19:46:29.133Z,101494.00
2022-11-13T19:48:56.268Z,101490.00
2022-11-13T19:51:25.317Z,101490.00
2022-11-13T19:54:00.344Z,101480.00
2022-11-13T19:56:28.866Z,101476.00
2022-11-13T19:58:56.725Z,101482.00
2022-11-13T20:01:26.713Z,101480.00
2022-11-13T20:04:04.083Z,101477.00
2022-11-13T20:06:33.494Z,101469.00
2022-11-13T20:09:02.605Z,101470.00
2022-11-13T20:11:31.106Z,101460.00
2022-11-13T20:13:58.690Z,101460.00
2022-11-13T20:16:26.488Z,101465.00
2022-11-13T20:18:58.075Z,101472.00
2022-11-13T20:21:31.501Z,101470.00
2022-11-13T20:24:00.047Z,101451.00
2022-11-13T20:26:28.606Z,101462.00
2022-11-13T20:28:55.895Z,101464.00
2022-11-13T20:31:25.737Z,101457.00
2022-11-13T20:33:56.185Z,101442.00
2022-11-13T20:36:25.087Z,101445.00
2022-11-13T20:38:55.569Z,101445.00
2022-11-13T20:41:24.249Z,101446.00
2022-11-13T20:43:52.973Z,101445.00
2022-11-13T20:46:21.479Z,101424.00
2022-11-13T20:48:49.304Z,101443.00
2022-11-13T20:51:28.397Z,101447.00
2022-11-13T20:53:56.051Z,101436.00
2022-11-13T20:56:25.932Z,101445.00
2022-11-13T20:58:53.821Z,101440.00
2022-11-13T21:01:25.385Z,101434.00
2022-11-13T21:03:53.239Z,101434.00
2022-11-13T21:06:25.081Z,101433.00
2022-11-13T21:08:55.317Z,101420.00
2022-11-13T21:11:29.416Z,101417.00
2022-11-13T21:13:57.778Z,101411.00
2022-11-13T21:16:25.496Z,101415.00
2022-11-13T21:18:52.609Z,101403.00
2022-11-13T21:21:22.480Z,101408.00
2022-11-13T21:23:49.837Z,101401.00
2022-11-13T21:26:24.911Z,101389.00
2022-11-13T21:28:56.991Z,101394.00
2022-11-13T21:31:24.366Z,101387.00
2022-11-13T21:33:55.365Z,101387.00
2022-11-13T21:36:26.327Z,101373.00
2022-11-13T21:38:55.661Z,101388.00
2022-11-13T21:41:25.397Z,101377.00
2022-11-13T21:43:59.992Z,101374.00
2022-11-13T21:46:33.422Z,101374.00
2022-11-13T21:49:10.704Z,101376.00
2022-11-13T21:51:40.592Z,101374.00
2022-11-13T21:54:10.767Z,101374.00
2022-11-13T21:56:39.912Z,101363.00
2022-11-13T21:59:07.797Z,101371.00
2022-11-13T22:01:38.656Z,101372.00
2022-11-13T22:04:18.834Z,101366.00
2022-11-13T22:06:49.191Z,101361.00
2022-11-13T22:09:25.465Z,101356.00
2022-11-13T22:11:53.899Z,101363.00
2022-11-13T22:14:21.208Z,101355.00
2022-11-13T22:16:48.784Z,101360.00
2022-11-13T22:19:26.940Z,101360.00
2022-11-13T22:21:54.981Z,101357.00
2022-11-13T22:24:22.217Z,101358.00
2022-11-13T22:26:49.324Z,101356.00
2022-11-13T22:29:19.748Z,101352.00
2022-11-13T22:31:46.857Z,101363.00
2022-11-13T22:34:16.703Z,101360.00
2022-11-13T22:36:43.961Z,101355.00
2022-11-13T22:39:12.680Z,101349.00
2022-11-13T22:41:40.388Z,101346.00
2022-11-13T22:44:13.028Z,101338.00
2022-11-13T22:46:40.529Z,101348.00
2022-11-13T22:49:08.487Z,101352.00
2022-11-13T22:51:39.438Z,101360.00
2022-11-13T22:54:10.104Z,101358.00
2022-11-13T22:56:39.544Z,101356.00
2022-11-13T22:59:11.461Z,101344.00
2022-11-13T23:01:41.503Z,101348.00
2022-11-13T23:04:13.879Z,101341.00
2022-11-13T23:06:41.765Z,101335.00
2022-11-13T23:09:09.634Z,101327.00
2022-11-13T23:11:40.299Z,101335.00
2022-11-13T23:14:12.428Z,101328.00
2022-11-13T23:16:40.202Z,101331.00
2022-11-13T23:19:07.536Z,101331.00
2022-11-13T23:21:34.927Z,101327.00
2022-11-13T23:24:02.437Z,101310.00
2022-11-13T23:26:29.795Z,101323.00
2022-11-13T23:28:57.445Z,101314.00
2022-11-13T23:31:24.972Z,101306.00
2022-11-13T23:33:52.363Z,101305.00
2022-11-13T23:36:19.752Z,101301.00
2022-11-13T23:38:47.177Z,101292.00
2022-11-13T23:41:14.365Z,101298.00
2022-11-13T23:46:28.996Z,101278.00
2022-11-13T23:48:56.204Z,101275.00
2022-11-13T23:51:23.397Z,101290.00
2022-11-13T23:53:50.676Z,101287.00
2022-11-13T23:56:17.711Z,101283.00
2022-11-13T23:58:44.835Z,101278.00
